Time;durP1;ratioP1;P1;durP2;ratioP2;P2;SDS_P1;SDS_P2;PMS_P1;PMS_P2;Temp;Humidity;BMP_temperature;BMP_pressure;BME280_temperature;BME280_humidity;BME280_pressure;Samples;Min_cycle;Max_cycle;Signal;HPM_P1;HPM_P2
2022/01/20 08:20:22;;;;;;;3.05;0.80;;;;;;;-1.46;84.47;99427.06;4844654;29;20136;-49
2022/01/20 08:22:49;;;;;;;3.25;0.90;;;;;;;-1.41;84.16;99426.31;4854726;29;20447;-56
2022/01/20 08:25:19;;;;;;;5.55;1.00;;;;;;;-1.34;83.07;99425.59;4855528;29;20053;-48
2022/01/20 08:27:48;;;;;;;2.63;0.95;;;;;;;-1.28;81.58;99425.72;4855649;29;20109;-50
2022/01/20 08:30:18;;;;;;;5.50;1.08;;;;;;;-1.20;79.89;99424.97;4854684;29;20121;-50
2022/01/20 08:32:46;;;;;;;7.55;1.15;;;;;;;-1.12;80.28;99423.44;4856722;29;20054;-47
2022/01/20 08:35:39;;;;;;;7.90;1.20;;;;;;;-1.03;78.61;99418.53;5148666;27;20164;-55
2022/01/20 08:38:07;;;;;;;5.60;1.45;;;;;;;-0.93;78.27;99415.31;5144620;27;20054;-48
2022/01/20 08:40:36;;;;;;;6.22;1.08;;;;;;;-0.89;77.93;99411.97;5147715;27;20219;-50
2022/01/20 08:43:05;;;;;;;10.82;1.80;;;;;;;-0.83;76.60;99422.25;5148178;27;20058;-53
2022/01/20 08:45:35;;;;;;;2.88;0.80;;;;;;;-0.77;77.45;99417.25;5147188;27;20471;-50
2022/01/20 08:48:02;;;;;;;6.07;2.10;;;;;;;-0.76;75.22;99424.06;5144255;27;20126;-47
2022/01/20 08:50:31;;;;;;;3.90;0.80;;;;;;;-0.71;75.39;99404.63;5147264;27;20107;-49
2022/01/20 08:53:00;;;;;;;5.30;1.10;;;;;;;-0.73;74.02;99413.94;5148650;27;20042;-48
2022/01/20 08:55:27;;;;;;;5.75;1.00;;;;;;;-0.81;72.02;99410.41;5148260;27;20421;-50
2022/01/20 08:57:55;;;;;;;2.30;0.60;;;;;;;-0.83;72.09;99412.06;5147904;27;20486;-50
2022/01/20 09:00:22;;;;;;;8.68;1.65;;;;;;;-0.83;73.23;99434.13;5148601;27;20043;-55
2022/01/20 09:02:49;;;;;;;3.97;0.60;;;;;;;-0.79;71.55;99418.06;5148649;27;20051;-54
2022/01/20 09:05:16;;;;;;;1.48;0.55;;;;;;;-0.76;71.56;99418.97;5146929;27;20047;-49
2022/01/20 09:07:44;;;;;;;2.67;0.98;;;;;;;-0.70;72.93;99429.25;5145083;27;20039;-53
2022/01/20 09:10:19;;;;;;;2.88;0.98;;;;;;;-0.66;72.66;99438.63;5149185;27;20089;-50
2022/01/20 09:15:31;;;;;;;2.70;1.00;;;;;;;-0.57;68.84;99444.69;5148324;27;20180;-53
2022/01/20 09:18:01;;;;;;;2.50;0.98;;;;;;;-0.49;69.48;99443.16;5150933;27;20122;-55
2022/01/20 09:20:29;;;;;;;2.90;0.82;;;;;;;-0.44;70.70;99451.72;5149018;27;20491;-47
2022/01/20 09:22:56;;;;;;;1.90;0.75;;;;;;;-0.43;70.06;99443.25;5145584;27;20372;-52
2022/01/20 09:25:25;;;;;;;3.28;1.10;;;;;;;-0.39;70.60;99450.09;5143321;27;20039;-56
2022/01/20 09:27:55;;;;;;;4.15;1.20;;;;;;;-0.31;70.47;99448.53;5141669;27;20063;-47
2022/01/20 09:30:25;;;;;;;1.83;0.68;;;;;;;-0.29;68.91;99440.91;5144102;27;20096;-46
2022/01/20 09:33:06;;;;;;;2.47;0.57;;;;;;;-0.27;68.11;99442.63;5149267;27;20043;-49
2022/01/20 09:35:35;;;;;;;4.35;0.80;;;;;;;-0.27;66.93;99457.91;5135599;27;20483;-48
2022/01/20 09:38:04;;;;;;;2.78;0.80;;;;;;;-0.25;67.49;99453.69;5142513;27;20463;-47
2022/01/20 09:40:35;;;;;;;6.03;0.88;;;;;;;-0.24;66.70;99454.56;5144786;27;20058;-49
2022/01/20 09:43:02;;;;;;;4.65;0.75;;;;;;;-0.22;66.94;99463.94;5141668;27;21839;-52
2022/01/20 09:45:30;;;;;;;3.30;0.88;;;;;;;-0.16;67.33;99453.84;5133111;27;20043;-49
2022/01/20 09:47:57;;;;;;;6.05;1.55;;;;;;;-0.15;65.77;99450.44;5130223;27;20057;-53
2022/01/20 09:50:26;;;;;;;3.83;0.90;;;;;;;-0.11;65.49;99449.66;5114610;27;20690;-51
2022/01/20 09:52:59;;;;;;;2.70;0.70;;;;;;;-0.08;62.72;99451.38;5115540;27;20043;-57
2022/01/20 09:55:27;;;;;;;2.72;0.88;;;;;;;-0.07;64.19;99459.06;5117223;27;21237;-54
2022/01/20 09:57:56;;;;;;;3.92;0.63;;;;;;;-0.15;64.85;99455.53;5118818;27;20043;-56
2022/01/20 10:00:23;;;;;;;6.72;0.80;;;;;;;-0.43;73.54;99440.72;5126946;27;20039;-51
2022/01/20 10:02:52;;;;;;;2.78;0.70;;;;;;;-0.68;75.65;99478.47;5126183;27;20055;-48
2022/01/20 10:05:41;;;;;;;4.60;0.82;;;;;;;-0.84;75.87;99489.25;5121133;27;20096;-47
2022/01/20 10:08:10;;;;;;;4.35;0.90;;;;;;;-0.90;75.94;99493.38;5117821;27;20104;-48
2022/01/20 10:10:45;;;;;;;8.93;1.10;;;;;;;-1.03;77.49;99484.66;5124002;27;20396;-47
2022/01/20 10:13:16;;;;;;;6.90;0.90;;;;;;;-1.12;77.96;99482.78;5124456;27;20070;-50
2022/01/20 10:15:44;;;;;;;3.08;0.55;;;;;;;-1.22;77.03;99477.50;5122240;27;20067;-48
2022/01/20 10:18:14;;;;;;;4.75;0.85;;;;;;;-1.26;78.14;99507.09;5120868;27;20202;-48
2022/01/20 10:20:53;;;;;;;4.55;0.80;;;;;;;-1.27;76.50;99493.53;5118682;27;20557;-50
2022/01/20 10:23:32;;;;;;;3.63;0.75;;;;;;;-1.28;75.57;99488.41;5121394;27;20368;-46
2022/01/20 10:26:09;;;;;;;2.25;0.47;;;;;;;-1.28;76.67;99476.56;5121515;27;20047;-49
2022/01/20 10:28:54;;;;;;;4.60;1.05;;;;;;;-1.24;76.12;99481.69;5117718;27;20499;-47
2022/01/20 10:31:33;;;;;;;3.10;0.70;;;;;;;-1.28;74.30;99466.38;5119665;27;20047;-50
2022/01/20 10:34:02;;;;;;;6.63;1.70;;;;;;;-1.30;72.28;99478.22;5122061;27;20055;-48
2022/01/20 10:36:29;;;;;;;9.65;1.00;;;;;;;-1.33;72.00;99480.69;5125310;27;20399;-52
2022/01/20 10:38:59;;;;;;;2.30;0.73;;;;;;;-1.36;72.35;99479.78;5115700;27;20052;-51
2022/01/20 10:41:32;;;;;;;3.70;2.88;;;;;;;-1.31;74.26;99488.34;5117069;27;20412;-46
2022/01/20 10:44:08;;;;;;;10.52;1.38;;;;;;;-1.22;73.34;99477.50;5116619;27;20050;-48
2022/01/20 10:46:47;;;;;;;4.55;1.17;;;;;;;-1.10;71.49;99482.81;5113683;27;20040;-52
2022/01/20 10:49:16;;;;;;;3.63;1.20;;;;;;;-0.92;71.24;99483.16;5110380;27;20050;-50
2022/01/20 10:51:44;;;;;;;7.75;1.20;;;;;;;-0.76;72.77;99474.94;5109475;27;20054;-54
2022/01/20 10:54:14;;;;;;;4.47;1.15;;;;;;;-0.59;70.56;99485.41;5113292;27;20043;-44
2022/01/20 10:56:52;;;;;;;3.97;0.90;;;;;;;-0.44;70.03;99482.28;5109001;27;20051;-45
2022/01/20 10:59:23;;;;;;;5.70;1.58;;;;;;;-0.32;69.04;99483.31;5108782;27;20074;-45
2022/01/20 11:02:02;;;;;;;4.50;1.30;;;;;;;-0.29;67.95;99477.41;5114528;27;20051;-47
2022/01/20 11:04:29;;;;;;;4.22;0.88;;;;;;;-0.25;68.09;99479.16;5111673;27;20051;-52
2022/01/20 11:07:01;;;;;;;5.90;1.10;;;;;;;-0.23;68.73;99482.59;5109034;27;20047;-53
2022/01/20 11:09:31;;;;;;;3.30;0.60;;;;;;;-0.25;68.85;99484.25;5111199;27;20542;-51
2022/01/20 11:11:59;;;;;;;7.60;0.95;;;;;;;-0.25;68.74;99484.25;5120166;27;20119;-51
2022/01/20 11:14:29;;;;;;;6.20;0.82;;;;;;;-0.34;70.08;99486.69;5110116;27;20506;-53
2022/01/20 11:16:58;;;;;;;2.60;0.77;;;;;;;-0.49;70.56;99504.25;5111197;27;20506;-52
2022/01/20 11:19:31;;;;;;;5.88;1.02;;;;;;;-0.57;73.17;99496.47;5118082;27;20071;-45
2022/01/20 11:22:06;;;;;;;3.00;1.17;;;;;;;-0.75;74.28;99493.63;5128392;27;20050;-45
2022/01/20 11:24:33;;;;;;;3.65;0.88;;;;;;;-0.86;75.93;99485.81;5127500;27;20065;-46
2022/01/20 11:27:02;;;;;;;5.38;1.10;;;;;;;-0.91;76.29;99484.88;5117763;27;20594;-44
2022/01/20 11:29:42;;;;;;;8.45;1.50;;;;;;;-0.98;76.94;99472.88;5115814;27;20052;-47
2022/01/20 11:32:18;;;;;;;9.00;2.03;;;;;;;-1.01;76.03;99483.00;5113836;27;20430;-48
2022/01/20 11:34:56;;;;;;;4.07;0.93;;;;;;;-0.96;77.12;99481.41;5125171;27;20503;-50
2022/01/20 11:37:24;;;;;;;12.88;1.67;;;;;;;-0.88;77.37;99474.75;5125508;27;20483;-49
2022/01/20 11:39:53;;;;;;;8.05;1.70;;;;;;;-0.80;76.99;99472.34;5128579;27;20062;-49
2022/01/20 11:42:22;;;;;;;11.32;2.28;;;;;;;-0.71;76.16;99473.34;5132502;27;20067;-46
2022/01/20 11:44:52;;;;;;;8.43;1.85;;;;;;;-0.60;76.51;99487.94;5132151;27;20088;-50
2022/01/20 11:47:31;;;;;;;10.27;1.70;;;;;;;-0.48;74.93;99483.06;5130807;27;20047;-46
2022/01/20 11:49:58;;;;;;;8.68;1.80;;;;;;;-0.45;73.29;99498.38;5126479;27;20058;-45
2022/01/20 11:52:27;;;;;;;7.18;1.10;;;;;;;-0.50;76.80;99494.91;5126327;27;20051;-47
2022/01/20 11:54:55;;;;;;;7.35;1.50;;;;;;;-0.51;77.29;99504.25;5129849;27;20126;-44
2022/01/20 11:57:29;;;;;;;4.53;1.38;;;;;;;-0.44;78.01;99510.28;5119610;27;20081;-46
2022/01/20 12:00:01;;;;;;;4.82;1.02;;;;;;;-0.40;76.87;99512.03;5112126;27;20055;-46
2022/01/20 12:02:32;;;;;;;7.97;1.83;;;;;;;-0.37;77.18;99519.72;5108088;27;20653;-45
2022/01/20 12:05:00;;;;;;;4.65;1.33;;;;;;;-0.35;77.18;99523.16;5111379;27;20539;-47
2022/01/20 12:07:29;;;;;;;4.45;1.50;;;;;;;-0.39;76.14;99531.59;5110234;27;20051;-47
2022/01/20 12:10:07;;;;;;;3.83;1.63;;;;;;;-0.46;75.09;99509.41;5108816;27;20063;-49
2022/01/20 12:12:35;;;;;;;6.40;1.60;;;;;;;-0.60;74.32;99521.03;5112710;27;20217;-47
2022/01/20 12:15:15;;;;;;;5.63;1.40;;;;;;;-0.74;75.84;99524.19;5117583;27;20051;-46
2022/01/20 12:17:49;;;;;;;9.02;1.50;;;;;;;-0.90;77.28;99529.84;5127858;27;20510;-50
2022/01/20 12:20:17;;;;;;;8.68;0.80;;;;;;;-1.01;79.57;99528.78;5112911;27;20083;-46
2022/01/20 12:22:46;;;;;;;6.07;0.93;;;;;;;-1.11;79.95;99526.88;5109195;27;20554;-47
2022/01/20 12:25:18;;;;;;;3.08;1.73;;;;;;;-1.16;80.38;99528.47;5109160;27;20047;-45
2022/01/20 12:27:46;;;;;;;3.28;0.70;;;;;;;-1.17;81.49;99531.84;5110717;27;20543;-48
2022/01/20 12:30:22;;;;;;;2.45;0.75;;;;;;;-1.20;80.93;99524.16;5108799;27;20043;-46
2022/01/20 12:33:01;;;;;;;2.28;0.80;;;;;;;-1.27;81.71;99540.97;5112838;27;20103;-50
2022/01/20 12:35:36;;;;;;;4.90;1.15;;;;;;;-1.33;83.16;99541.72;5119498;27;20096;-48
2022/01/20 12:38:14;;;;;;;;;;;;;;;-1.39;83.04;99539.06;5119137;28;20053;-49
2022/01/20 12:40:42;;;;;;;5.78;1.17;;;;;;;-1.38;84.20;99539.91;5110261;28;19927;-48
2022/01/20 12:43:09;;;;;;;13.50;1.45;;;;;;;-1.39;84.79;99556.00;5112023;27;20043;-51
2022/01/20 12:45:56;;;;;;;7.30;1.38;;;;;;;-1.47;85.68;99554.97;5121588;27;20139;-46
2022/01/20 12:48:24;;;;;;;7.95;1.25;;;;;;;-1.55;85.51;99559.91;5109540;27;20047;-48
2022/01/20 12:50:54;;;;;;;12.43;1.40;;;;;;;-1.66;85.96;99561.31;5121868;28;20057;-51
2022/01/20 12:53:32;;;;;;;3.80;1.10;;;;;;;-1.76;86.22;99559.41;5130126;27;20175;-50
2022/01/20 12:56:00;;;;;;;5.38;1.42;;;;;;;-1.74;86.87;99557.75;5122439;27;20100;-52
2022/01/20 12:58:27;;;;;;;3.95;1.20;;;;;;;-1.72;86.38;99551.88;5116569;28;20075;-43
2022/01/20 13:01:01;;;;;;;4.10;1.38;;;;;;;-1.66;86.32;99566.41;5110612;27;20047;-45
2022/01/20 13:03:36;;;;;;;5.10;1.13;;;;;;;-1.56;86.02;99572.53;5114918;27;20058;-48
2022/01/20 13:06:05;;;;;;;8.23;1.95;;;;;;;-1.48;86.62;99569.38;5114893;27;20040;-48
2022/01/20 13:08:37;;;;;;;14.48;2.17;;;;;;;-1.40;86.90;99583.09;5127429;28;20051;-48
2022/01/20 13:11:13;;;;;;;9.35;1.92;;;;;;;-1.36;86.67;99589.97;5123845;28;20122;-48
2022/01/20 13:13:41;;;;;;;10.25;1.63;;;;;;;-1.37;87.22;99611.13;5122532;27;20047;-47
2022/01/20 13:16:15;;;;;;;5.88;1.58;;;;;;;-1.48;88.50;99617.66;5127510;27;20128;-48
2022/01/20 13:18:53;;;;;;;4.75;1.48;;;;;;;-1.59;88.84;99639.41;5125019;27;20050;-51
2022/01/20 13:21:24;;;;;;;5.53;1.90;;;;;;;-1.63;89.42;99635.09;5126781;27;20403;-49
2022/01/20 13:23:58;;;;;;;6.03;1.33;;;;;;;-1.67;89.77;99625.66;5132119;27;20043;-45
2022/01/20 13:26:27;;;;;;;10.80;2.28;;;;;;;-1.70;89.47;99633.22;5114894;27;20532;-47
2022/01/20 13:29:06;;;;;;;4.90;1.40;;;;;;;-1.75;89.30;99629.72;5126172;27;20406;-47
2022/01/20 13:31:35;;;;;;;4.80;1.58;;;;;;;-1.80;89.65;99638.91;5133351;27;20051;-49
2022/01/20 13:34:09;;;;;;;5.75;1.50;;;;;;;-1.83;88.49;99641.38;5127519;27;20548;-51
2022/01/20 13:36:42;;;;;;;4.50;1.67;;;;;;;-1.85;88.09;99640.50;5129558;27;20039;-51
2022/01/20 13:39:09;;;;;;;4.85;1.55;;;;;;;-1.85;87.89;99648.13;5130161;27;20138;-51
2022/01/20 13:41:37;;;;;;;10.13;1.58;;;;;;;-1.87;87.52;99652.31;5129323;27;20047;-50
2022/01/20 13:47:09;;;;;;;4.60;1.58;;;;;;;-1.85;87.17;99661.69;5127762;27;20061;-46
2022/01/20 13:49:48;;;;;;;6.30;1.60;;;;;;;-1.83;86.94;99670.19;5120991;27;20068;-49
2022/01/20 13:52:18;;;;;;;7.65;1.88;;;;;;;-1.79;87.19;99661.81;5120100;27;20468;-51
2022/01/20 13:54:48;;;;;;;4.22;1.40;;;;;;;-1.77;86.58;99675.41;5112571;27;20047;-48
2022/01/20 13:57:17;;;;;;;4.85;1.70;;;;;;;-1.77;86.40;99685.59;5122295;27;20036;-46
2022/01/20 13:59:52;;;;;;;6.10;1.77;;;;;;;-1.73;86.65;99686.50;5112239;27;20138;-46
2022/01/20 14:02:22;;;;;;;6.15;1.80;;;;;;;-1.70;87.48;99681.50;5116047;27;20086;-46
2022/01/20 14:04:50;;;;;;;7.03;2.35;;;;;;;-1.71;87.73;99680.66;5124459;27;20043;-48
2022/01/20 14:07:18;;;;;;;4.93;1.83;;;;;;;-1.70;88.49;99681.50;5117977;27;20047;-48
2022/01/20 14:09:45;;;;;;;5.55;1.67;;;;;;;-1.73;88.00;99674.66;5131805;27;20047;-46
2022/01/20 14:12:13;;;;;;;7.28;1.90;;;;;;;-1.75;87.36;99683.06;5123763;27;20601;-49
2022/01/20 14:14:41;;;;;;;9.95;2.28;;;;;;;-1.73;88.11;99681.44;5115036;27;20159;-46
2022/01/20 14:17:17;;;;;;;8.73;2.40;;;;;;;-1.72;88.39;99688.22;5113804;27;21134;-47
2022/01/20 14:19:46;;;;;;;;;;;;;;;-1.77;88.46;99685.59;5113994;27;20633;-48
2022/01/20 14:22:14;;;;;;;6.40;1.95;;;;;;;-1.82;88.54;99689.69;5115125;27;19927;-48
2022/01/20 14:24:42;;;;;;;7.53;2.22;;;;;;;-1.84;88.42;99682.84;5112814;27;20165;-51
2022/01/20 14:27:12;;;;;;;3.60;1.73;;;;;;;-1.87;88.38;99703.09;5113572;27;20062;-52
2022/01/20 14:29:40;;;;;;;13.77;2.92;;;;;;;-1.87;88.85;99719.22;5115560;27;20120;-52
2022/01/20 14:32:08;;;;;;;9.13;1.65;;;;;;;-1.87;88.84;99713.25;5114030;27;20516;-49
2022/01/20 14:34:35;;;;;;;14.90;1.83;;;;;;;-1.88;89.31;99726.78;5119524;27;20111;-48
2022/01/20 14:37:05;;;;;;;22.48;2.72;;;;;;;-1.89;88.96;99735.22;5119314;27;20154;-45
2022/01/20 14:39:32;;;;;;;12.48;1.83;;;;;;;-1.93;89.13;99740.22;5122603;27;20461;-46
2022/01/20 14:42:01;;;;;;;6.25;1.90;;;;;;;-1.93;89.25;99740.22;5116999;27;20070;-45
2022/01/20 14:44:29;;;;;;;5.72;1.70;;;;;;;-1.91;89.41;99746.22;5116594;27;20047;-47
2022/01/20 14:46:56;;;;;;;13.05;3.35;;;;;;;-1.92;89.37;99746.16;5109799;27;20517;-48
2022/01/20 14:49:24;;;;;;;9.52;2.30;;;;;;;-1.94;89.25;99753.75;5108196;27;20051;-47
2022/01/20 14:51:51;;;;;;;15.15;3.58;;;;;;;-1.92;89.64;99757.19;5110338;27;20438;-48
2022/01/20 14:54:20;;;;;;;12.60;2.38;;;;;;;-1.92;90.25;99772.44;5111215;27;20051;-49
2022/01/20 14:56:47;;;;;;;13.55;2.65;;;;;;;-1.95;90.16;99774.91;5117193;27;20274;-47
2022/01/20 14:59:15;;;;;;;16.65;2.75;;;;;;;-1.94;90.31;99781.69;5126169;27;20057;-47
2022/01/20 15:01:42;;;;;;;7.85;2.35;;;;;;;-1.94;90.58;99779.16;5130359;27;20051;-47
2022/01/20 15:04:10;;;;;;;9.13;2.30;;;;;;;-1.93;90.48;99788.50;5129975;27;20055;-47
2022/01/20 15:06:37;;;;;;;16.50;3.08;;;;;;;-1.94;90.05;99794.41;5118209;27;20074;-46
2022/01/20 15:09:05;;;;;;;11.23;2.15;;;;;;;-1.94;89.70;99793.53;5112514;27;20411;-48
2022/01/20 15:11:36;;;;;;;7.57;2.15;;;;;;;-1.93;89.74;99796.13;5118771;27;20130;-48
2022/01/20 15:14:04;;;;;;;8.25;2.75;;;;;;;-1.93;90.02;99796.13;5113670;27;20167;-46
2022/01/20 15:16:32;;;;;;;14.30;2.53;;;;;;;-1.93;89.31;99796.13;5128191;27;20527;-48
2022/01/20 15:19:03;;;;;;;9.45;2.53;;;;;;;-1.95;88.00;99802.84;5121279;27;20051;-52
2022/01/20 15:21:31;;;;;;;7.82;2.28;;;;;;;-1.93;88.15;99800.34;5119454;27;20050;-48
2022/01/20 15:23:58;;;;;;;12.48;2.70;;;;;;;-1.92;86.91;99808.00;5122932;27;20051;-46
2022/01/20 15:26:27;;;;;;;13.65;3.53;;;;;;;-1.91;87.28;99798.69;5120272;27;20051;-46
2022/01/20 15:28:58;;;;;;;6.90;2.33;;;;;;;-1.89;85.71;99806.34;5115901;27;20047;-52
2022/01/20 15:31:28;;;;;;;9.93;2.13;;;;;;;-1.89;85.04;99801.28;5115639;27;20151;-51
